sensor_id;sensor_type;location;lat;lon;timestamp;P1;durP1;ratioP1;P2;durP2;ratioP2
8413;SDS011;4244;48.684;9.028;2023-05-07T00:00:00;4.87;;;4.37;;
8413;SDS011;4244;48.684;9.028;2023-05-07T00:02:26;7.70;;;5.43;;
8413;SDS011;4244;48.684;9.028;2023-05-07T00:04:51;5.47;;;4.97;;
8413;SDS011;4244;48.684;9.028;2023-05-07T00:07:17;5.60;;;5.10;;
8413;SDS011;4244;48.684;9.028;2023-05-07T00:09:43;4.73;;;4.37;;
8413;SDS011;4244;48.684;9.028;2023-05-07T00:12:09;4.80;;;4.03;;
8413;SDS011;4244;48.684;9.028;2023-05-07T00:14:34;5.40;;;4.57;;
8413;SDS011;4244;48.684;9.028;2023-05-07T00:17:00;6.13;;;4.60;;
8413;SDS011;4244;48.684;9.028;2023-05-07T00:19:26;4.20;;;3.80;;
8413;SDS011;4244;48.684;9.028;2023-05-07T00:21:52;4.00;;;3.60;;
8413;SDS011;4244;48.684;9.028;2023-05-07T00:24:21;5.20;;;4.63;;
8413;SDS011;4244;48.684;9.028;2023-05-07T00:26:47;4.77;;;4.30;;
8413;SDS011;4244;48.684;9.028;2023-05-07T00:29:12;5.30;;;4.60;;
8413;SDS011;4244;48.684;9.028;2023-05-07T00:31:38;4.87;;;4.40;;
8413;SDS011;4244;48.684;9.028;2023-05-07T00:34:04;5.30;;;4.40;;
8413;SDS011;4244;48.684;9.028;2023-05-07T00:36:30;4.50;;;4.10;;
8413;SDS011;4244;48.684;9.028;2023-05-07T00:38:56;4.63;;;4.23;;
8413;SDS011;4244;48.684;9.028;2023-05-07T00:41:24;4.70;;;4.10;;
8413;SDS011;4244;48.684;9.028;2023-05-07T00:43:49;4.20;;;3.90;;
8413;SDS011;4244;48.684;9.028;2023-05-07T00:46:16;5.20;;;4.03;;
8413;SDS011;4244;48.684;9.028;2023-05-07T00:48:42;4.37;;;3.97;;
8413;SDS011;4244;48.684;9.028;2023-05-07T00:51:09;4.23;;;3.77;;
8413;SDS011;4244;48.684;9.028;2023-05-07T00:53:36;5.20;;;4.10;;
8413;SDS011;4244;48.684;9.028;2023-05-07T00:56:01;6.93;;;4.20;;
8413;SDS011;4244;48.684;9.028;2023-05-07T00:58:27;4.00;;;3.70;;
8413;SDS011;4244;48.684;9.028;2023-05-07T01:00:53;4.57;;;4.13;;
8413;SDS011;4244;48.684;9.028;2023-05-07T01:03:19;4.53;;;3.93;;
8413;SDS011;4244;48.684;9.028;2023-05-07T01:05:44;4.17;;;3.80;;
8413;SDS011;4244;48.684;9.028;2023-05-07T01:08:11;4.43;;;3.80;;
8413;SDS011;4244;48.684;9.028;2023-05-07T01:13:59;5.03;;;4.37;;
8413;SDS011;4244;48.684;9.028;2023-05-07T01:16:25;5.37;;;4.07;;
8413;SDS011;4244;48.684;9.028;2023-05-07T01:18:51;4.20;;;3.80;;
8413;SDS011;4244;48.684;9.028;2023-05-07T01:21:17;4.93;;;3.87;;
8413;SDS011;4244;48.684;9.028;2023-05-07T01:23:44;4.13;;;3.83;;
8413;SDS011;4244;48.684;9.028;2023-05-07T01:26:10;5.47;;;4.67;;
8413;SDS011;4244;48.684;9.028;2023-05-07T01:28:36;4.53;;;4.00;;
8413;SDS011;4244;48.684;9.028;2023-05-07T01:31:02;4.17;;;3.77;;
8413;SDS011;4244;48.684;9.028;2023-05-07T01:33:29;4.53;;;3.83;;
8413;SDS011;4244;48.684;9.028;2023-05-07T01:35:57;4.63;;;4.10;;
8413;SDS011;4244;48.684;9.028;2023-05-07T01:38:25;4.23;;;3.80;;
8413;SDS011;4244;48.684;9.028;2023-05-07T01:40:50;4.00;;;3.70;;
8413;SDS011;4244;48.684;9.028;2023-05-07T01:43:16;4.63;;;4.23;;
8413;SDS011;4244;48.684;9.028;2023-05-07T01:45:42;5.00;;;3.97;;
8413;SDS011;4244;48.684;9.028;2023-05-07T01:48:09;5.07;;;4.57;;
8413;SDS011;4244;48.684;9.028;2023-05-07T01:50:35;5.67;;;4.50;;
8413;SDS011;4244;48.684;9.028;2023-05-07T01:53:02;5.20;;;4.70;;
8413;SDS011;4244;48.684;9.028;2023-05-07T01:55:28;4.13;;;3.80;;
8413;SDS011;4244;48.684;9.028;2023-05-07T01:57:53;4.40;;;3.60;;
8413;SDS011;4244;48.684;9.028;2023-05-07T02:00:19;5.70;;;4.00;;
8413;SDS011;4244;48.684;9.028;2023-05-07T02:02:46;4.43;;;4.13;;
8413;SDS011;4244;48.684;9.028;2023-05-07T02:05:12;5.30;;;4.37;;
8413;SDS011;4244;48.684;9.028;2023-05-07T02:07:38;5.50;;;4.20;;
8413;SDS011;4244;48.684;9.028;2023-05-07T02:10:04;4.30;;;3.90;;
8413;SDS011;4244;48.684;9.028;2023-05-07T02:12:30;5.20;;;4.70;;
8413;SDS011;4244;48.684;9.028;2023-05-07T02:14:55;5.13;;;4.60;;
8413;SDS011;4244;48.684;9.028;2023-05-07T02:17:21;4.17;;;3.77;;
8413;SDS011;4244;48.684;9.028;2023-05-07T02:19:47;4.80;;;4.40;;
8413;SDS011;4244;48.684;9.028;2023-05-07T02:22:12;6.40;;;5.00;;
8413;SDS011;4244;48.684;9.028;2023-05-07T02:24:38;4.10;;;3.80;;
8413;SDS011;4244;48.684;9.028;2023-05-07T02:27:04;4.90;;;4.50;;
8413;SDS011;4244;48.684;9.028;2023-05-07T02:29:29;5.23;;;4.63;;
8413;SDS011;4244;48.684;9.028;2023-05-07T02:31:55;5.23;;;4.40;;
8413;SDS011;4244;48.684;9.028;2023-05-07T02:34:21;4.80;;;4.40;;
8413;SDS011;4244;48.684;9.028;2023-05-07T02:36:46;4.50;;;4.10;;
8413;SDS011;4244;48.684;9.028;2023-05-07T02:39:12;5.93;;;4.80;;
8413;SDS011;4244;48.684;9.028;2023-05-07T02:41:39;4.33;;;4.03;;
8413;SDS011;4244;48.684;9.028;2023-05-07T02:44:05;4.50;;;4.10;;
8413;SDS011;4244;48.684;9.028;2023-05-07T02:46:31;5.63;;;5.13;;
8413;SDS011;4244;48.684;9.028;2023-05-07T02:48:57;4.63;;;4.23;;
8413;SDS011;4244;48.684;9.028;2023-05-07T02:51:23;4.87;;;4.37;;
8413;SDS011;4244;48.684;9.028;2023-05-07T02:53:48;5.10;;;4.70;;
8413;SDS011;4244;48.684;9.028;2023-05-07T02:56:14;5.40;;;4.43;;
8413;SDS011;4244;48.684;9.028;2023-05-07T02:58:40;5.10;;;4.60;;
8413;SDS011;4244;48.684;9.028;2023-05-07T03:01:07;4.13;;;3.53;;
8413;SDS011;4244;48.684;9.028;2023-05-07T03:03:33;4.43;;;4.03;;
8413;SDS011;4244;48.684;9.028;2023-05-07T03:05:59;3.80;;;3.50;;
8413;SDS011;4244;48.684;9.028;2023-05-07T03:08:24;4.53;;;4.13;;
8413;SDS011;4244;48.684;9.028;2023-05-07T03:10:50;4.30;;;3.97;;
8413;SDS011;4244;48.684;9.028;2023-05-07T03:13:16;8.17;;;5.10;;
8413;SDS011;4244;48.684;9.028;2023-05-07T03:15:42;5.63;;;5.13;;
8413;SDS011;4244;48.684;9.028;2023-05-07T03:18:07;5.00;;;4.50;;
8413;SDS011;4244;48.684;9.028;2023-05-07T03:20:33;4.10;;;3.80;;
8413;SDS011;4244;48.684;9.028;2023-05-07T03:22:59;5.83;;;4.63;;
8413;SDS011;4244;48.684;9.028;2023-05-07T03:25:25;4.73;;;4.23;;
8413;SDS011;4244;48.684;9.028;2023-05-07T03:27:51;5.07;;;4.43;;
8413;SDS011;4244;48.684;9.028;2023-05-07T03:30:16;4.97;;;4.57;;
8413;SDS011;4244;48.684;9.028;2023-05-07T03:32:42;4.10;;;3.47;;
8413;SDS011;4244;48.684;9.028;2023-05-07T03:35:08;3.83;;;3.50;;
8413;SDS011;4244;48.684;9.028;2023-05-07T03:37:33;4.33;;;3.93;;
8413;SDS011;4244;48.684;9.028;2023-05-07T03:39:59;4.83;;;4.30;;
8413;SDS011;4244;48.684;9.028;2023-05-07T03:42:25;5.03;;;4.60;;
8413;SDS011;4244;48.684;9.028;2023-05-07T03:44:51;5.00;;;4.00;;
8413;SDS011;4244;48.684;9.028;2023-05-07T03:47:16;5.20;;;4.70;;
8413;SDS011;4244;48.684;9.028;2023-05-07T03:49:42;4.90;;;4.50;;
8413;SDS011;4244;48.684;9.028;2023-05-07T03:52:07;4.53;;;3.93;;
8413;SDS011;4244;48.684;9.028;2023-05-07T03:54:33;5.07;;;4.67;;
8413;SDS011;4244;48.684;9.028;2023-05-07T03:56:59;5.17;;;4.60;;
8413;SDS011;4244;48.684;9.028;2023-05-07T03:59:24;4.30;;;3.90;;
8413;SDS011;4244;48.684;9.028;2023-05-07T04:01:50;5.67;;;5.13;;
8413;SDS011;4244;48.684;9.028;2023-05-07T04:04:16;4.70;;;4.30;;
8413;SDS011;4244;48.684;9.028;2023-05-07T04:06:42;4.87;;;4.43;;
8413;SDS011;4244;48.684;9.028;2023-05-07T04:09:07;6.27;;;4.40;;
8413;SDS011;4244;48.684;9.028;2023-05-07T04:11:33;4.53;;;4.13;;
8413;SDS011;4244;48.684;9.028;2023-05-07T04:14:00;5.80;;;4.47;;
8413;SDS011;4244;48.684;9.028;2023-05-07T04:16:25;4.90;;;4.40;;
8413;SDS011;4244;48.684;9.028;2023-05-07T04:18:51;5.00;;;4.50;;
8413;SDS011;4244;48.684;9.028;2023-05-07T04:21:17;6.27;;;5.03;;
8413;SDS011;4244;48.684;9.028;2023-05-07T04:23:45;5.17;;;4.30;;
8413;SDS011;4244;48.684;9.028;2023-05-07T04:26:11;4.90;;;4.50;;
8413;SDS011;4244;48.684;9.028;2023-05-07T04:28:37;5.83;;;4.27;;
8413;SDS011;4244;48.684;9.028;2023-05-07T04:31:03;4.70;;;4.30;;
8413;SDS011;4244;48.684;9.028;2023-05-07T04:33:29;7.23;;;4.73;;
8413;SDS011;4244;48.684;9.028;2023-05-07T04:35:55;4.83;;;4.43;;
8413;SDS011;4244;48.684;9.028;2023-05-07T04:38:20;5.23;;;4.07;;
8413;SDS011;4244;48.684;9.028;2023-05-07T04:40:48;4.83;;;4.30;;
8413;SDS011;4244;48.684;9.028;2023-05-07T04:43:14;5.57;;;4.57;;
8413;SDS011;4244;48.684;9.028;2023-05-07T04:45:41;4.90;;;4.50;;
8413;SDS011;4244;48.684;9.028;2023-05-07T04:48:08;5.30;;;4.67;;
8413;SDS011;4244;48.684;9.028;2023-05-07T04:50:34;4.73;;;4.10;;
8413;SDS011;4244;48.684;9.028;2023-05-07T04:53:00;5.13;;;4.20;;
8413;SDS011;4244;48.684;9.028;2023-05-07T04:55:26;6.57;;;4.37;;
8413;SDS011;4244;48.684;9.028;2023-05-07T04:57:52;5.20;;;4.70;;
8413;SDS011;4244;48.684;9.028;2023-05-07T05:00:18;5.43;;;4.93;;
8413;SDS011;4244;48.684;9.028;2023-05-07T05:02:45;5.63;;;5.13;;
8413;SDS011;4244;48.684;9.028;2023-05-07T05:05:10;4.80;;;4.40;;
8413;SDS011;4244;48.684;9.028;2023-05-07T05:07:36;6.33;;;5.73;;
8413;SDS011;4244;48.684;9.028;2023-05-07T05:10:02;5.53;;;5.03;;
8413;SDS011;4244;48.684;9.028;2023-05-07T05:12:29;4.73;;;4.33;;
8413;SDS011;4244;48.684;9.028;2023-05-07T05:14:55;5.20;;;4.70;;
8413;SDS011;4244;48.684;9.028;2023-05-07T05:17:21;5.30;;;4.60;;
8413;SDS011;4244;48.684;9.028;2023-05-07T05:19:47;6.43;;;5.40;;
8413;SDS011;4244;48.684;9.028;2023-05-07T05:22:12;6.57;;;5.40;;
8413;SDS011;4244;48.684;9.028;2023-05-07T05:24:38;5.97;;;5.47;;
8413;SDS011;4244;48.684;9.028;2023-05-07T05:27:04;5.37;;;4.93;;
8413;SDS011;4244;48.684;9.028;2023-05-07T05:29:30;5.00;;;4.50;;
8413;SDS011;4244;48.684;9.028;2023-05-07T05:31:56;7.70;;;5.80;;
8413;SDS011;4244;48.684;9.028;2023-05-07T05:34:22;6.17;;;5.67;;
8413;SDS011;4244;48.684;9.028;2023-05-07T05:36:48;5.70;;;5.10;;
8413;SDS011;4244;48.684;9.028;2023-05-07T05:39:14;5.27;;;4.77;;
8413;SDS011;4244;48.684;9.028;2023-05-07T05:41:39;5.30;;;4.80;;
8413;SDS011;4244;48.684;9.028;2023-05-07T05:44:05;7.33;;;5.40;;
8413;SDS011;4244;48.684;9.028;2023-05-07T05:46:31;5.90;;;5.40;;
8413;SDS011;4244;48.684;9.028;2023-05-07T05:48:57;6.80;;;5.23;;
8413;SDS011;4244;48.684;9.028;2023-05-07T05:51:22;5.57;;;5.07;;
8413;SDS011;4244;48.684;9.028;2023-05-07T05:53:48;6.27;;;5.70;;
8413;SDS011;4244;48.684;9.028;2023-05-07T05:56:14;7.20;;;6.50;;
8413;SDS011;4244;48.684;9.028;2023-05-07T05:58:40;9.67;;;6.90;;
8413;SDS011;4244;48.684;9.028;2023-05-07T06:01:06;7.07;;;6.33;;
8413;SDS011;4244;48.684;9.028;2023-05-07T06:03:32;7.23;;;6.50;;
8413;SDS011;4244;48.684;9.028;2023-05-07T06:05:58;6.90;;;6.20;;
8413;SDS011;4244;48.684;9.028;2023-05-07T06:11:15;7.93;;;5.80;;
8413;SDS011;4244;48.684;9.028;2023-05-07T06:13:41;5.53;;;5.10;;
8413;SDS011;4244;48.684;9.028;2023-05-07T06:16:07;5.60;;;5.07;;
8413;SDS011;4244;48.684;9.028;2023-05-07T06:18:32;5.23;;;4.10;;
8413;SDS011;4244;48.684;9.028;2023-05-07T06:21:00;5.53;;;5.03;;
8413;SDS011;4244;48.684;9.028;2023-05-07T06:23:26;4.80;;;4.40;;
8413;SDS011;4244;48.684;9.028;2023-05-07T06:25:52;10.43;;;5.10;;
8413;SDS011;4244;48.684;9.028;2023-05-07T06:28:18;5.80;;;5.00;;
8413;SDS011;4244;48.684;9.028;2023-05-07T06:30:44;5.77;;;4.20;;
8413;SDS011;4244;48.684;9.028;2023-05-07T06:33:10;4.30;;;3.90;;
8413;SDS011;4244;48.684;9.028;2023-05-07T06:35:35;4.60;;;4.20;;
8413;SDS011;4244;48.684;9.028;2023-05-07T06:38:01;5.23;;;4.13;;
8413;SDS011;4244;48.684;9.028;2023-05-07T06:40:27;4.30;;;4.00;;
8413;SDS011;4244;48.684;9.028;2023-05-07T06:42:52;4.60;;;3.87;;
8413;SDS011;4244;48.684;9.028;2023-05-07T06:45:19;5.47;;;4.00;;
8413;SDS011;4244;48.684;9.028;2023-05-07T06:47:45;4.80;;;4.30;;
8413;SDS011;4244;48.684;9.028;2023-05-07T06:50:11;4.63;;;3.63;;
8413;SDS011;4244;48.684;9.028;2023-05-07T06:52:36;3.97;;;3.67;;
8413;SDS011;4244;48.684;9.028;2023-05-07T06:55:02;3.57;;;3.27;;
8413;SDS011;4244;48.684;9.028;2023-05-07T06:57:28;7.70;;;4.03;;
8413;SDS011;4244;48.684;9.028;2023-05-07T06:59:54;4.70;;;4.30;;
8413;SDS011;4244;48.684;9.028;2023-05-07T07:02:19;3.83;;;3.53;;
8413;SDS011;4244;48.684;9.028;2023-05-07T07:04:45;5.63;;;3.50;;
8413;SDS011;4244;48.684;9.028;2023-05-07T07:07:11;4.80;;;4.40;;
8413;SDS011;4244;48.684;9.028;2023-05-07T07:09:36;5.57;;;5.07;;
8413;SDS011;4244;48.684;9.028;2023-05-07T07:12:02;5.10;;;4.60;;
8413;SDS011;4244;48.684;9.028;2023-05-07T07:14:28;6.43;;;5.47;;
8413;SDS011;4244;48.684;9.028;2023-05-07T07:16:54;4.97;;;4.47;;
8413;SDS011;4244;48.684;9.028;2023-05-07T07:19:19;5.20;;;4.43;;
8413;SDS011;4244;48.684;9.028;2023-05-07T07:21:45;5.53;;;5.07;;
8413;SDS011;4244;48.684;9.028;2023-05-07T07:24:11;4.80;;;4.30;;
8413;SDS011;4244;48.684;9.028;2023-05-07T07:26:37;5.60;;;5.20;;
8413;SDS011;4244;48.684;9.028;2023-05-07T07:29:04;5.07;;;4.57;;
8413;SDS011;4244;48.684;9.028;2023-05-07T07:31:31;5.30;;;4.70;;
8413;SDS011;4244;48.684;9.028;2023-05-07T07:33:57;4.17;;;3.87;;
8413;SDS011;4244;48.684;9.028;2023-05-07T07:36:23;4.80;;;4.40;;
8413;SDS011;4244;48.684;9.028;2023-05-07T07:38:48;4.67;;;4.27;;
8413;SDS011;4244;48.684;9.028;2023-05-07T07:41:14;4.33;;;3.97;;
8413;SDS011;4244;48.684;9.028;2023-05-07T07:43:40;4.27;;;3.90;;
8413;SDS011;4244;48.684;9.028;2023-05-07T07:46:05;4.83;;;4.43;;
8413;SDS011;4244;48.684;9.028;2023-05-07T07:48:31;4.53;;;4.20;;
8413;SDS011;4244;48.684;9.028;2023-05-07T07:50:57;4.90;;;4.40;;
8413;SDS011;4244;48.684;9.028;2023-05-07T07:53:22;4.90;;;4.30;;
8413;SDS011;4244;48.684;9.028;2023-05-07T07:55:48;5.00;;;4.60;;
8413;SDS011;4244;48.684;9.028;2023-05-07T07:58:14;4.73;;;4.33;;
8413;SDS011;4244;48.684;9.028;2023-05-07T08:00:39;4.20;;;3.80;;
8413;SDS011;4244;48.684;9.028;2023-05-07T08:03:05;4.60;;;3.30;;
8413;SDS011;4244;48.684;9.028;2023-05-07T08:05:32;3.70;;;3.40;;
8413;SDS011;4244;48.684;9.028;2023-05-07T08:07:57;5.60;;;3.80;;
8413;SDS011;4244;48.684;9.028;2023-05-07T08:10:23;3.67;;;3.33;;
8413;SDS011;4244;48.684;9.028;2023-05-07T08:12:49;3.93;;;3.50;;
8413;SDS011;4244;48.684;9.028;2023-05-07T08:15:15;3.67;;;3.33;;
8413;SDS011;4244;48.684;9.028;2023-05-07T08:17:41;3.90;;;3.50;;
8413;SDS011;4244;48.684;9.028;2023-05-07T08:20:07;3.33;;;3.13;;
8413;SDS011;4244;48.684;9.028;2023-05-07T08:22:36;5.53;;;3.70;;
8413;SDS011;4244;48.684;9.028;2023-05-07T08:25:02;3.70;;;3.33;;
8413;SDS011;4244;48.684;9.028;2023-05-07T08:27:28;4.07;;;3.77;;
8413;SDS011;4244;48.684;9.028;2023-05-07T08:29:54;7.43;;;3.57;;
8413;SDS011;4244;48.684;9.028;2023-05-07T08:32:20;4.10;;;3.70;;
8413;SDS011;4244;48.684;9.028;2023-05-07T08:34:46;3.50;;;3.23;;
8413;SDS011;4244;48.684;9.028;2023-05-07T08:37:12;3.27;;;2.93;;
8413;SDS011;4244;48.684;9.028;2023-05-07T08:39:37;3.20;;;2.90;;
8413;SDS011;4244;48.684;9.028;2023-05-07T08:42:03;4.83;;;3.60;;
8413;SDS011;4244;48.684;9.028;2023-05-07T08:44:33;3.43;;;3.13;;
8413;SDS011;4244;48.684;9.028;2023-05-07T08:47:02;4.10;;;3.33;;
8413;SDS011;4244;48.684;9.028;2023-05-07T08:49:28;3.23;;;2.73;;
8413;SDS011;4244;48.684;9.028;2023-05-07T08:51:53;3.23;;;2.60;;
8413;SDS011;4244;48.684;9.028;2023-05-07T08:54:20;2.60;;;2.40;;
8413;SDS011;4244;48.684;9.028;2023-05-07T08:56:46;3.03;;;2.83;;
8413;SDS011;4244;48.684;9.028;2023-05-07T08:59:12;3.90;;;3.53;;
8413;SDS011;4244;48.684;9.028;2023-05-07T09:01:38;4.47;;;3.10;;
8413;SDS011;4244;48.684;9.028;2023-05-07T09:04:04;3.13;;;2.83;;
8413;SDS011;4244;48.684;9.028;2023-05-07T09:06:30;3.80;;;2.60;;
8413;SDS011;4244;48.684;9.028;2023-05-07T09:08:56;3.63;;;2.90;;
8413;SDS011;4244;48.684;9.028;2023-05-07T09:11:23;4.43;;;3.00;;
8413;SDS011;4244;48.684;9.028;2023-05-07T09:13:53;3.90;;;3.60;;
8413;SDS011;4244;48.684;9.028;2023-05-07T09:16:20;3.43;;;3.13;;
8413;SDS011;4244;48.684;9.028;2023-05-07T09:18:48;3.70;;;3.40;;
8413;SDS011;4244;48.684;9.028;2023-05-07T09:21:17;3.60;;;3.30;;
8413;SDS011;4244;48.684;9.028;2023-05-07T09:23:44;4.90;;;3.40;;
8413;SDS011;4244;48.684;9.028;2023-05-07T09:26:09;5.50;;;4.50;;
8413;SDS011;4244;48.684;9.028;2023-05-07T09:28:44;3.67;;;3.37;;
8413;SDS011;4244;48.684;9.028;2023-05-07T09:31:11;3.90;;;3.60;;
8413;SDS011;4244;48.684;9.028;2023-05-07T09:33:38;5.30;;;3.70;;
8413;SDS011;4244;48.684;9.028;2023-05-07T09:36:05;3.60;;;3.40;;
8413;SDS011;4244;48.684;9.028;2023-05-07T09:38:32;3.80;;;3.50;;
8413;SDS011;4244;48.684;9.028;2023-05-07T09:41:05;4.03;;;3.60;;
8413;SDS011;4244;48.684;9.028;2023-05-07T09:43:36;3.87;;;3.57;;
8413;SDS011;4244;48.684;9.028;2023-05-07T09:46:05;3.97;;;3.63;;
8413;SDS011;4244;48.684;9.028;2023-05-07T09:48:36;5.50;;;3.60;;
8413;SDS011;4244;48.684;9.028;2023-05-07T09:51:06;4.47;;;4.07;;
8413;SDS011;4244;48.684;9.028;2023-05-07T09:53:41;4.03;;;3.73;;
8413;SDS011;4244;48.684;9.028;2023-05-07T09:56:08;4.20;;;3.90;;
8413;SDS011;4244;48.684;9.028;2023-05-07T09:58:36;4.20;;;3.47;;
8413;SDS011;4244;48.684;9.028;2023-05-07T10:01:02;3.13;;;2.83;;
8413;SDS011;4244;48.684;9.028;2023-05-07T10:03:29;3.67;;;3.40;;
8413;SDS011;4244;48.684;9.028;2023-05-07T10:05:56;3.60;;;3.30;;
8413;SDS011;4244;48.684;9.028;2023-05-07T10:08:23;4.67;;;4.37;;
8413;SDS011;4244;48.684;9.028;2023-05-07T10:10:49;4.60;;;3.80;;
8413;SDS011;4244;48.684;9.028;2023-05-07T10:13:16;4.40;;;3.63;;
8413;SDS011;4244;48.684;9.028;2023-05-07T10:15:44;4.40;;;3.60;;
8413;SDS011;4244;48.684;9.028;2023-05-07T10:18:10;3.73;;;3.43;;
8413;SDS011;4244;48.684;9.028;2023-05-07T10:20:37;4.07;;;3.63;;
8413;SDS011;4244;48.684;9.028;2023-05-07T10:23:04;4.80;;;4.40;;
8413;SDS011;4244;48.684;9.028;2023-05-07T10:25:31;4.83;;;4.43;;
8413;SDS011;4244;48.684;9.028;2023-05-07T10:28:02;5.17;;;4.60;;
8413;SDS011;4244;48.684;9.028;2023-05-07T10:33:15;4.30;;;3.17;;
8413;SDS011;4244;48.684;9.028;2023-05-07T10:35:42;4.37;;;4.07;;
8413;SDS011;4244;48.684;9.028;2023-05-07T10:38:09;3.20;;;3.00;;
8413;SDS011;4244;48.684;9.028;2023-05-07T10:40:35;4.13;;;3.73;;
8413;SDS011;4244;48.684;9.028;2023-05-07T10:43:02;4.93;;;3.77;;
8413;SDS011;4244;48.684;9.028;2023-05-07T10:45:30;4.70;;;4.20;;
8413;SDS011;4244;48.684;9.028;2023-05-07T10:48:10;4.57;;;4.17;;
8413;SDS011;4244;48.684;9.028;2023-05-07T10:50:44;5.40;;;4.77;;
8413;SDS011;4244;48.684;9.028;2023-05-07T10:58:28;9.50;;;5.47;;
8413;SDS011;4244;48.684;9.028;2023-05-07T11:00:58;6.00;;;5.33;;
8413;SDS011;4244;48.684;9.028;2023-05-07T11:03:25;3.47;;;3.00;;
8413;SDS011;4244;48.684;9.028;2023-05-07T11:08:55;4.87;;;3.13;;
8413;SDS011;4244;48.684;9.028;2023-05-07T11:11:43;4.77;;;3.50;;
8413;SDS011;4244;48.684;9.028;2023-05-07T11:17:07;3.23;;;2.93;;
8413;SDS011;4244;48.684;9.028;2023-05-07T11:19:53;3.83;;;3.43;;
8413;SDS011;4244;48.684;9.028;2023-05-07T11:25:01;6.60;;;3.47;;
8413;SDS011;4244;48.684;9.028;2023-05-07T11:27:30;4.10;;;3.50;;
8413;SDS011;4244;48.684;9.028;2023-05-07T11:29:56;3.50;;;3.20;;
8413;SDS011;4244;48.684;9.028;2023-05-07T11:32:29;4.10;;;3.57;;
8413;SDS011;4244;48.684;9.028;2023-05-07T11:34:56;4.27;;;3.97;;
8413;SDS011;4244;48.684;9.028;2023-05-07T11:37:23;3.43;;;3.13;;
8413;SDS011;4244;48.684;9.028;2023-05-07T11:39:49;3.63;;;3.33;;
8413;SDS011;4244;48.684;9.028;2023-05-07T11:42:31;3.50;;;3.17;;
8413;SDS011;4244;48.684;9.028;2023-05-07T11:45:01;3.73;;;3.43;;
8413;SDS011;4244;48.684;9.028;2023-05-07T11:47:26;3.50;;;3.07;;
8413;SDS011;4244;48.684;9.028;2023-05-07T11:49:55;3.50;;;3.20;;
8413;SDS011;4244;48.684;9.028;2023-05-07T11:52:23;3.90;;;3.00;;
8413;SDS011;4244;48.684;9.028;2023-05-07T11:54:50;3.30;;;3.07;;
8413;SDS011;4244;48.684;9.028;2023-05-07T11:57:16;3.20;;;2.90;;
8413;SDS011;4244;48.684;9.028;2023-05-07T11:59:41;3.30;;;3.00;;
8413;SDS011;4244;48.684;9.028;2023-05-07T12:02:09;4.77;;;3.80;;
8413;SDS011;4244;48.684;9.028;2023-05-07T12:04:35;4.83;;;3.33;;
8413;SDS011;4244;48.684;9.028;2023-05-07T12:07:02;3.60;;;3.30;;
8413;SDS011;4244;48.684;9.028;2023-05-07T12:09:28;2.00;;;1.73;;
8413;SDS011;4244;48.684;9.028;2023-05-07T12:11:54;2.43;;;1.27;;
8413;SDS011;4244;48.684;9.028;2023-05-07T12:14:21;2.50;;;1.67;;
8413;SDS011;4244;48.684;9.028;2023-05-07T12:16:47;1.60;;;1.20;;
8413;SDS011;4244;48.684;9.028;2023-05-07T12:19:12;1.50;;;1.10;;
8413;SDS011;4244;48.684;9.028;2023-05-07T12:21:38;3.30;;;1.30;;
8413;SDS011;4244;48.684;9.028;2023-05-07T12:24:05;1.83;;;1.20;;
8413;SDS011;4244;48.684;9.028;2023-05-07T12:26:36;2.00;;;1.40;;
8413;SDS011;4244;48.684;9.028;2023-05-07T12:29:05;1.60;;;1.47;;
8413;SDS011;4244;48.684;9.028;2023-05-07T12:31:32;2.30;;;1.67;;
8413;SDS011;4244;48.684;9.028;2023-05-07T12:33:57;2.03;;;1.77;;
8413;SDS011;4244;48.684;9.028;2023-05-07T12:36:23;2.07;;;1.87;;
8413;SDS011;4244;48.684;9.028;2023-05-07T12:38:50;3.27;;;2.20;;
8413;SDS011;4244;48.684;9.028;2023-05-07T12:41:16;3.03;;;2.73;;
8413;SDS011;4244;48.684;9.028;2023-05-07T12:43:43;4.37;;;3.07;;
8413;SDS011;4244;48.684;9.028;2023-05-07T12:46:10;4.07;;;3.60;;
8413;SDS011;4244;48.684;9.028;2023-05-07T12:48:38;7.80;;;4.30;;
8413;SDS011;4244;48.684;9.028;2023-05-07T12:51:09;9.03;;;4.90;;
8413;SDS011;4244;48.684;9.028;2023-05-07T12:53:39;4.97;;;4.20;;
8413;SDS011;4244;48.684;9.028;2023-05-07T12:56:07;5.93;;;4.80;;
8413;SDS011;4244;48.684;9.028;2023-05-07T12:58:33;8.70;;;4.00;;
8413;SDS011;4244;48.684;9.028;2023-05-07T13:01:01;7.33;;;3.40;;
8413;SDS011;4244;48.684;9.028;2023-05-07T13:03:33;8.50;;;2.73;;
8413;SDS011;4244;48.684;9.028;2023-05-07T13:06:00;8.40;;;3.20;;
8413;SDS011;4244;48.684;9.028;2023-05-07T13:08:32;4.50;;;2.80;;
8413;SDS011;4244;48.684;9.028;2023-05-07T13:11:00;5.20;;;3.53;;
8413;SDS011;4244;48.684;9.028;2023-05-07T13:13:33;5.20;;;3.60;;
8413;SDS011;4244;48.684;9.028;2023-05-07T13:16:00;6.83;;;3.40;;
8413;SDS011;4244;48.684;9.028;2023-05-07T13:18:26;5.30;;;3.33;;
8413;SDS011;4244;48.684;9.028;2023-05-07T13:20:54;6.60;;;3.70;;
8413;SDS011;4244;48.684;9.028;2023-05-07T13:23:20;6.57;;;3.40;;
8413;SDS011;4244;48.684;9.028;2023-05-07T13:25:47;6.43;;;3.30;;
8413;SDS011;4244;48.684;9.028;2023-05-07T13:28:13;4.47;;;2.70;;
8413;SDS011;4244;48.684;9.028;2023-05-07T13:30:38;3.67;;;3.20;;
8413;SDS011;4244;48.684;9.028;2023-05-07T13:33:05;3.37;;;2.87;;
8413;SDS011;4244;48.684;9.028;2023-05-07T13:35:31;3.67;;;3.37;;
8413;SDS011;4244;48.684;9.028;2023-05-07T13:37:57;3.80;;;2.83;;
8413;SDS011;4244;48.684;9.028;2023-05-07T13:40:24;3.97;;;2.87;;
8413;SDS011;4244;48.684;9.028;2023-05-07T13:42:50;3.30;;;3.00;;
8413;SDS011;4244;48.684;9.028;2023-05-07T13:45:17;5.63;;;3.53;;
8413;SDS011;4244;48.684;9.028;2023-05-07T13:47:43;7.40;;;4.00;;
8413;SDS011;4244;48.684;9.028;2023-05-07T13:50:09;4.73;;;3.67;;
8413;SDS011;4244;48.684;9.028;2023-05-07T13:52:37;7.13;;;3.63;;
8413;SDS011;4244;48.684;9.028;2023-05-07T13:55:03;5.20;;;4.30;;
8413;SDS011;4244;48.684;9.028;2023-05-07T13:57:29;5.50;;;5.00;;
8413;SDS011;4244;48.684;9.028;2023-05-07T13:59:55;5.20;;;4.77;;
8413;SDS011;4244;48.684;9.028;2023-05-07T14:02:21;5.80;;;4.53;;
8413;SDS011;4244;48.684;9.028;2023-05-07T14:04:46;7.00;;;4.23;;
8413;SDS011;4244;48.684;9.028;2023-05-07T14:07:12;6.30;;;4.90;;
8413;SDS011;4244;48.684;9.028;2023-05-07T14:09:39;7.03;;;4.00;;
8413;SDS011;4244;48.684;9.028;2023-05-07T14:12:05;4.33;;;3.07;;
8413;SDS011;4244;48.684;9.028;2023-05-07T14:14:31;5.73;;;3.87;;
8413;SDS011;4244;48.684;9.028;2023-05-07T14:16:57;5.63;;;4.00;;
8413;SDS011;4244;48.684;9.028;2023-05-07T14:19:22;4.73;;;4.10;;
8413;SDS011;4244;48.684;9.028;2023-05-07T14:21:48;4.00;;;3.23;;
8413;SDS011;4244;48.684;9.028;2023-05-07T14:24:14;4.83;;;4.30;;
8413;SDS011;4244;48.684;9.028;2023-05-07T14:26:40;8.03;;;5.67;;
8413;SDS011;4244;48.684;9.028;2023-05-07T14:29:05;4.57;;;4.00;;
8413;SDS011;4244;48.684;9.028;2023-05-07T14:31:32;4.17;;;3.70;;
8413;SDS011;4244;48.684;9.028;2023-05-07T14:33:58;4.20;;;3.43;;
8413;SDS011;4244;48.684;9.028;2023-05-07T14:36:24;4.50;;;3.23;;
8413;SDS011;4244;48.684;9.028;2023-05-07T14:38:53;4.33;;;3.27;;
8413;SDS011;4244;48.684;9.028;2023-05-07T14:41:20;2.80;;;2.60;;
8413;SDS011;4244;48.684;9.028;2023-05-07T14:43:47;3.77;;;3.37;;
8413;SDS011;4244;48.684;9.028;2023-05-07T14:46:18;3.17;;;2.87;;
8413;SDS011;4244;48.684;9.028;2023-05-07T14:48:47;5.53;;;3.00;;
8413;SDS011;4244;48.684;9.028;2023-05-07T14:51:13;3.47;;;3.17;;
8413;SDS011;4244;48.684;9.028;2023-05-07T14:53:40;3.33;;;2.80;;
8413;SDS011;4244;48.684;9.028;2023-05-07T14:56:07;3.17;;;2.90;;
8413;SDS011;4244;48.684;9.028;2023-05-07T14:58:33;4.10;;;3.10;;
8413;SDS011;4244;48.684;9.028;2023-05-07T15:00:59;3.20;;;3.00;;
8413;SDS011;4244;48.684;9.028;2023-05-07T15:03:25;4.40;;;2.47;;
8413;SDS011;4244;48.684;9.028;2023-05-07T15:05:50;3.10;;;2.67;;
8413;SDS011;4244;48.684;9.028;2023-05-07T15:08:19;4.13;;;2.83;;
8413;SDS011;4244;48.684;9.028;2023-05-07T15:10:45;3.30;;;3.00;;
8413;SDS011;4244;48.684;9.028;2023-05-07T15:13:11;4.90;;;3.00;;
8413;SDS011;4244;48.684;9.028;2023-05-07T15:15:38;4.17;;;3.27;;
8413;SDS011;4244;48.684;9.028;2023-05-07T15:18:03;3.00;;;2.70;;
8413;SDS011;4244;48.684;9.028;2023-05-07T15:20:31;4.27;;;3.37;;
8413;SDS011;4244;48.684;9.028;2023-05-07T15:22:58;5.30;;;3.03;;
8413;SDS011;4244;48.684;9.028;2023-05-07T15:25:23;3.70;;;3.33;;
8413;SDS011;4244;48.684;9.028;2023-05-07T15:27:49;4.33;;;3.30;;
8413;SDS011;4244;48.684;9.028;2023-05-07T15:30:15;3.80;;;2.97;;
8413;SDS011;4244;48.684;9.028;2023-05-07T15:32:41;2.93;;;2.67;;